Time;durP1;ratioP1;P1;durP2;ratioP2;P2;SDS_P1;SDS_P2;PMS_P1;PMS_P2;Temp;Humidity;BMP_temperature;BMP_pressure;BME280_temperature;BME280_humidity;BME280_pressure;Samples;Min_cycle;Max_cycle;Signal;HPM_P1;HPM_P2
2021/09/24 00:01:01;;;;;;;1.00;1.00;;;;;;;9.18;98.12;98888.34;6262559;28;20185;-72
2021/09/24 00:04:06;;;;;;;0.90;0.90;;;;;;;9.01;98.55;98890.34;6265344;28;20390;-72
2021/09/24 00:07:12;;;;;;;0.80;0.80;;;;;;;9.15;98.41;98888.88;6266513;28;20236;-72
2021/09/24 00:10:19;;;;;;;1.02;0.80;;;;;;;9.20;98.95;98899.81;6265990;28;20185;-72
2021/09/24 00:13:24;;;;;;;0.82;0.70;;;;;;;9.12;99.45;98900.25;6266590;28;20252;-72
2021/09/24 00:16:28;;;;;;;0.75;0.75;;;;;;;9.24;98.38;98895.50;6266899;28;20185;-72
2021/09/24 00:19:32;;;;;;;0.98;0.98;;;;;;;9.27;97.95;98909.41;6265883;28;20248;-72
2021/09/24 00:22:37;;;;;;;1.05;0.80;;;;;;;9.13;99.51;98904.63;6266715;28;20192;-72
2021/09/24 00:25:43;;;;;;;1.75;0.80;;;;;;;9.18;98.56;98915.56;6265690;28;20216;-72
2021/09/24 00:28:49;;;;;;;0.80;0.80;;;;;;;9.28;97.95;98913.78;6265191;28;20413;-73
2021/09/24 00:31:54;;;;;;;1.42;1.00;;;;;;;9.34;97.51;98911.94;6265123;28;20247;-72
2021/09/24 00:34:59;;;;;;;0.75;0.75;;;;;;;9.43;97.99;98927.56;6265103;28;20485;-72
2021/09/24 00:38:04;;;;;;;0.70;0.70;;;;;;;9.07;98.95;98930.09;6265955;28;20188;-72
2021/09/24 00:41:11;;;;;;;0.73;0.73;;;;;;;9.40;100.00;98927.25;6265079;28;20228;-72
2021/09/24 00:44:15;;;;;;;0.85;0.85;;;;;;;9.53;99.04;98935.00;6264895;28;20468;-72
2021/09/24 00:47:21;;;;;;;1.42;0.65;;;;;;;9.19;98.73;98947.94;6265761;28;20250;-72
2021/09/24 00:50:26;;;;;;;0.75;0.75;;;;;;;9.29;100.00;98944.53;6264811;28;20480;-72
2021/09/24 00:53:31;;;;;;;0.80;0.80;;;;;;;9.20;100.00;98943.34;6265669;28;20224;-73
2021/09/24 00:56:37;;;;;;;0.82;0.82;;;;;;;9.13;100.00;98948.16;6264580;28;20500;-72
2021/09/24 00:59:41;;;;;;;0.65;0.50;;;;;;;9.24;100.00;98944.50;6265875;28;20252;-72
2021/09/24 01:02:45;;;;;;;0.67;0.67;;;;;;;9.13;100.00;98959.03;6280708;22;20192;-72
2021/09/24 01:05:50;;;;;;;0.70;0.70;;;;;;;9.26;100.00;98947.78;6262944;28;20606;-70
2021/09/24 01:08:54;;;;;;;1.05;0.60;;;;;;;9.21;100.00;98961.31;6263764;28;20213;-71
2021/09/24 01:12:00;;;;;;;0.60;0.60;;;;;;;9.28;100.00;98961.94;6264790;28;20220;-71
2021/09/24 01:15:07;;;;;;;2.38;0.70;;;;;;;9.24;100.00;98971.69;6264118;28;20192;-71
2021/09/24 01:18:12;;;;;;;0.70;0.70;;;;;;;9.30;100.00;98965.22;6263699;28;20227;-71
2021/09/24 01:21:18;;;;;;;3.03;0.80;;;;;;;9.22;100.00;98980.09;6263973;28;20185;-71
2021/09/24 01:24:22;;;;;;;1.10;0.70;;;;;;;9.17;100.00;98981.91;6264750;28;20223;-70
2021/09/24 01:27:27;;;;;;;0.80;0.80;;;;;;;9.11;100.00;98978.34;6263428;28;20247;-71
2021/09/24 01:30:31;;;;;;;0.90;0.90;;;;;;;9.30;100.00;98992.44;6263477;28;20492;-71
2021/09/24 01:33:35;;;;;;;0.73;0.73;;;;;;;9.32;100.00;98990.31;6264666;28;20191;-71
2021/09/24 01:36:41;;;;;;;0.75;0.75;;;;;;;9.42;100.00;99001.31;6263370;28;20414;-71
2021/09/24 01:39:46;;;;;;;0.80;0.80;;;;;;;9.51;100.00;99005.22;6264219;28;20220;-72
2021/09/24 01:42:53;;;;;;;0.80;0.80;;;;;;;9.26;100.00;99013.06;6263278;28;20185;-71
2021/09/24 01:45:58;;;;;;;2.38;0.70;;;;;;;9.35;100.00;99009.66;6264329;28;20185;-71
2021/09/24 01:49:02;;;;;;;0.73;0.70;;;;;;;9.40;100.00;99030.66;6262852;28;20483;-71
2021/09/24 01:52:08;;;;;;;0.63;0.63;;;;;;;9.38;99.88;99033.66;6263938;28;20192;-71
2021/09/24 01:55:13;;;;;;;0.60;0.60;;;;;;;9.38;100.00;99032.81;6262892;28;20473;-71
2021/09/24 01:58:17;;;;;;;0.63;0.60;;;;;;;9.41;100.00;99037.75;6263628;28;20221;-70
2021/09/24 02:01:22;;;;;;;0.60;0.60;;;;;;;9.34;100.00;99046.13;6263756;28;20185;-71
2021/09/24 02:04:26;;;;;;;0.70;0.70;;;;;;;9.50;100.00;99063.44;6263551;28;20302;-71
2021/09/24 02:07:32;;;;;;;1.42;0.60;;;;;;;9.41;100.00;99062.25;6263444;28;20192;-71
2021/09/24 02:10:36;;;;;;;0.70;0.70;;;;;;;9.53;100.00;99068.41;6262515;28;20185;-71
2021/09/24 02:13:41;;;;;;;0.60;0.60;;;;;;;9.43;100.00;99079.16;6263830;28;20185;-71
2021/09/24 02:16:46;;;;;;;0.90;0.70;;;;;;;9.48;100.00;99087.38;6262267;28;20476;-71
2021/09/24 02:19:50;;;;;;;0.68;0.68;;;;;;;9.43;100.00;99090.03;6263617;28;20199;-71
2021/09/24 02:22:55;;;;;;;0.52;0.52;;;;;;;9.41;100.00;99097.63;6263445;28;20184;-70
2021/09/24 02:26:00;;;;;;;0.52;0.52;;;;;;;9.50;100.00;99112.44;6262634;28;20248;-72
2021/09/24 02:29:04;;;;;;;0.50;0.50;;;;;;;9.35;100.00;99104.06;6262884;28;20213;-72
2021/09/24 02:32:08;;;;;;;0.60;0.60;;;;;;;9.51;100.00;99119.56;6263194;28;20217;-72
2021/09/24 02:35:13;;;;;;;0.80;0.80;;;;;;;9.42;100.00;99104.75;6262938;28;20191;-71
2021/09/24 02:38:18;;;;;;;0.50;0.50;;;;;;;9.38;100.00;99125.34;6262402;28;20196;-71
2021/09/24 02:41:23;;;;;;;0.60;0.60;;;;;;;9.56;100.00;99130.50;6261899;28;20527;-71
2021/09/24 02:44:27;;;;;;;0.70;0.70;;;;;;;9.55;99.46;99137.03;6261690;28;20239;-71
2021/09/24 02:47:31;;;;;;;0.65;0.65;;;;;;;9.62;100.00;99132.22;6262536;28;20216;-71
2021/09/24 02:50:35;;;;;;;0.55;0.55;;;;;;;9.54;99.07;99140.84;6262510;28;20216;-71
2021/09/24 02:53:41;;;;;;;0.60;0.60;;;;;;;9.54;100.00;99140.84;6262503;28;20220;-71
2021/09/24 02:56:45;;;;;;;0.50;0.50;;;;;;;9.44;99.81;99151.56;6262900;28;20216;-71
2021/09/24 02:59:49;;;;;;;0.50;0.50;;;;;;;9.44;100.00;99162.47;6262395;28;20220;-71
2021/09/24 03:02:53;;;;;;;0.60;0.60;;;;;;;9.63;100.00;99166.53;6262001;28;20199;-72
2021/09/24 03:05:58;;;;;;;0.60;0.60;;;;;;;9.58;100.00;99174.63;6261786;28;20315;-72
2021/09/24 03:09:03;;;;;;;1.13;0.60;;;;;;;9.58;100.00;99187.44;6262537;28;20213;-71
2021/09/24 03:12:09;;;;;;;0.50;0.50;;;;;;;9.58;100.00;99180.06;6262290;28;20223;-71
2021/09/24 03:15:14;;;;;;;0.60;0.60;;;;;;;9.47;100.00;99189.19;6261292;28;20315;-71
2021/09/24 03:18:18;;;;;;;0.50;0.50;;;;;;;9.52;100.00;99197.44;6261271;28;20500;-71
2021/09/24 03:21:23;;;;;;;1.05;0.68;;;;;;;9.57;100.00;99194.78;6262523;28;20258;-71
2021/09/24 03:24:28;;;;;;;0.60;0.60;;;;;;;9.68;100.00;99193.84;6261088;28;20342;-71
2021/09/24 03:27:33;;;;;;;0.50;0.50;;;;;;;9.62;100.00;99192.13;6262340;28;20248;-70
2021/09/24 03:30:38;;;;;;;0.60;0.60;;;;;;;9.76;100.00;99198.84;6261346;28;20250;-71
2021/09/24 03:33:42;;;;;;;0.60;0.60;;;;;;;9.75;100.00;99202.66;6260914;28;20504;-71
2021/09/24 03:36:46;;;;;;;0.50;0.50;;;;;;;9.60;100.00;99204.34;6262522;28;20248;-71
2021/09/24 03:39:52;;;;;;;0.50;0.50;;;;;;;9.66;100.00;99204.16;6265960;28;20263;-71
2021/09/24 03:42:58;;;;;;;0.57;0.57;;;;;;;9.70;100.00;99201.78;6266999;28;20254;-72
2021/09/24 03:46:02;;;;;;;0.60;0.60;;;;;;;9.68;100.00;99202.00;6266913;28;20216;-71
2021/09/24 03:49:06;;;;;;;0.60;0.60;;;;;;;9.78;100.00;99223.97;6266690;28;20263;-71
2021/09/24 03:52:11;;;;;;;0.52;0.52;;;;;;;9.89;100.00;99209.38;6266713;28;20216;-71
2021/09/24 03:55:17;;;;;;;0.40;0.40;;;;;;;9.86;100.00;99225.44;6265665;28;20411;-71
2021/09/24 03:58:22;;;;;;;0.50;0.50;;;;;;;9.77;100.00;99211.41;6265466;28;20238;-71
2021/09/24 04:01:26;;;;;;;0.50;0.50;;;;;;;9.80;100.00;99249.03;6265512;28;20414;-71
2021/09/24 04:04:31;;;;;;;0.85;0.50;;;;;;;9.80;100.00;99243.59;6265766;28;20237;-71
2021/09/24 04:07:35;;;;;;;0.50;0.50;;;;;;;9.84;100.00;99244.72;6266658;28;20185;-71
2021/09/24 04:10:41;;;;;;;0.50;0.50;;;;;;;9.84;100.00;99260.25;6266557;28;20213;-71
2021/09/24 04:13:45;;;;;;;0.55;0.55;;;;;;;9.69;100.00;99269.00;6266639;28;20191;-72
2021/09/24 04:16:50;;;;;;;0.50;0.50;;;;;;;9.84;100.00;99271.97;6266529;28;20185;-71
2021/09/24 04:19:54;;;;;;;0.63;0.63;;;;;;;9.82;100.00;99279.56;6266167;28;20220;-71
2021/09/24 04:22:58;;;;;;;0.60;0.60;;;;;;;9.95;100.00;99290.13;6266275;28;20184;-71
2021/09/24 04:26:04;;;;;;;0.40;0.40;;;;;;;9.82;100.00;99305.97;6264902;28;20459;-72
2021/09/24 04:29:08;;;;;;;0.73;0.73;;;;;;;9.77;100.00;99314.91;6265780;28;20304;-71
2021/09/24 04:32:13;;;;;;;0.60;0.60;;;;;;;9.71;100.00;99315.88;6265065;28;20425;-71
2021/09/24 04:35:17;;;;;;;0.60;0.60;;;;;;;9.75;100.00;99325.22;6264745;28;20239;-71
2021/09/24 04:38:21;;;;;;;0.50;0.50;;;;;;;9.69;100.00;99353.44;6264728;28;20231;-72
2021/09/24 04:41:27;;;;;;;1.08;0.50;;;;;;;9.70;100.00;99366.00;6265706;28;20207;-71
2021/09/24 04:44:31;;;;;;;0.77;0.65;;;;;;;9.84;100.00;99380.09;6265458;28;20192;-71
2021/09/24 04:47:36;;;;;;;0.60;0.60;;;;;;;9.94;100.00;99391.97;6264443;28;20396;-71
2021/09/24 04:50:40;;;;;;;1.45;0.60;;;;;;;10.02;100.00;99391.56;6264388;28;20273;-71
2021/09/24 04:53:44;;;;;;;0.70;0.70;;;;;;;9.88;100.00;99398.44;6265096;28;20189;-71
2021/09/24 04:56:50;;;;;;;0.45;0.45;;;;;;;9.78;100.00;99414.59;6265690;28;20319;-70
2021/09/24 04:59:54;;;;;;;1.63;0.60;;;;;;;9.75;100.00;99408.81;6265467;28;20259;-71
2021/09/24 05:02:58;;;;;;;0.70;0.70;;;;;;;9.69;100.00;99434.28;6263919;28;20400;-71
2021/09/24 05:06:02;;;;;;;0.52;0.52;;;;;;;9.69;100.00;99440.56;6265217;28;20216;-71
2021/09/24 05:09:06;;;;;;;0.68;0.68;;;;;;;9.67;100.00;99437.28;6265141;28;20192;-71
2021/09/24 05:12:13;;;;;;;0.60;0.60;;;;;;;9.69;100.00;99454.19;6264043;28;20280;-71
2021/09/24 05:15:17;;;;;;;0.70;0.70;;;;;;;9.70;100.00;99444.97;6265041;28;20220;-72
2021/09/24 05:18:22;;;;;;;0.63;0.63;;;;;;;9.69;100.00;99443.28;6264975;28;20267;-71
2021/09/24 05:21:29;;;;;;;0.60;0.60;;;;;;;9.62;100.00;99458.97;6265234;28;20330;-71
2021/09/24 05:24:33;;;;;;;0.70;0.70;;;;;;;9.72;100.00;99470.03;6263609;28;20184;-71
2021/09/24 05:27:38;;;;;;;1.35;0.65;;;;;;;9.59;100.00;99475.78;6264908;28;20195;-71
2021/09/24 05:30:43;;;;;;;1.05;0.85;;;;;;;9.64;100.00;99477.78;6263752;28;20208;-72
2021/09/24 05:33:47;;;;;;;0.65;0.65;;;;;;;9.58;100.00;99484.22;6264657;28;20192;-71
2021/09/24 05:36:51;;;;;;;0.77;0.77;;;;;;;9.65;100.00;99479.44;6264323;28;20191;-72
2021/09/24 05:39:56;;;;;;;1.30;0.70;;;;;;;9.65;100.00;99491.16;6263138;28;20399;-71
2021/09/24 05:43:01;;;;;;;0.65;0.65;;;;;;;9.60;100.00;99499.22;6264372;28;20255;-71
2021/09/24 05:46:06;;;;;;;1.17;0.70;;;;;;;9.53;100.00;99503.16;6264339;28;20370;-71
2021/09/24 05:49:10;;;;;;;0.70;0.70;;;;;;;9.68;100.00;99498.81;6264226;28;20252;-71
2021/09/24 05:52:14;;;;;;;0.90;0.90;;;;;;;9.83;100.00;99507.31;6263531;28;20240;-71
2021/09/24 05:55:20;;;;;;;0.70;0.70;;;;;;;9.69;100.00;99519.53;6262572;28;20370;-71
2021/09/24 05:58:26;;;;;;;0.75;0.75;;;;;;;9.69;100.00;99530.44;6263818;28;20193;-71
2021/09/24 06:01:30;;;;;;;0.70;0.70;;;;;;;9.78;100.00;99523.56;6263799;28;20267;-71
2021/09/24 06:04:35;;;;;;;0.60;0.60;;;;;;;9.85;100.00;99521.50;6263933;28;20286;-71
2021/09/24 06:07:40;;;;;;;0.65;0.63;;;;;;;9.90;100.00;99532.50;6263538;28;20511;-72
2021/09/24 06:10:45;;;;;;;0.60;0.60;;;;;;;9.78;100.00;99539.06;6263298;28;20220;-71
2021/09/24 06:13:50;;;;;;;1.25;0.70;;;;;;;9.95;100.00;99546.19;6263466;28;20192;-71
2021/09/24 06:16:54;;;;;;;0.70;0.70;;;;;;;9.96;99.63;99536.94;6263046;28;20262;-72
2021/09/24 06:19:59;;;;;;;0.70;0.70;;;;;;;10.02;99.64;99544.16;6262237;28;20480;-72
2021/09/24 06:23:04;;;;;;;2.05;0.98;;;;;;;9.88;100.00;99540.09;6263267;28;20192;-72
2021/09/24 06:26:10;;;;;;;0.80;0.80;;;;;;;9.92;99.83;99560.31;6263315;28;20196;-72
2021/09/24 06:29:15;;;;;;;0.80;0.80;;;;;;;9.95;100.00;99539.91;6262203;28;20185;-72
2021/09/24 06:32:20;;;;;;;0.60;0.60;;;;;;;9.96;100.00;99552.50;6262931;28;20240;-72
2021/09/24 06:35:24;;;;;;;0.60;0.60;;;;;;;9.83;99.78;99556.34;6262469;28;20278;-72
2021/09/24 06:38:28;;;;;;;0.65;0.65;;;;;;;9.98;98.83;99578.41;6263334;28;20231;-72
2021/09/24 06:41:32;;;;;;;0.85;0.85;;;;;;;10.09;100.00;99574.78;6263034;28;20188;-71
2021/09/24 06:44:38;;;;;;;3.50;0.70;;;;;;;10.13;100.00;99571.63;6262919;28;20185;-72
2021/09/24 06:47:44;;;;;;;1.38;0.80;;;;;;;9.97;99.10;99593.09;6261956;28;20189;-71
2021/09/24 06:50:48;;;;;;;0.75;0.75;;;;;;;9.81;100.00;99588.41;6261824;28;20212;-71
2021/09/24 06:53:52;;;;;;;1.00;0.75;;;;;;;10.01;99.77;99615.25;6261643;28;20216;-72
2021/09/24 06:56:57;;;;;;;0.80;0.80;;;;;;;9.88;100.00;99619.09;6261574;28;20555;-72
2021/09/24 07:00:04;;;;;;;1.95;0.70;;;;;;;10.09;99.36;99621.13;6261816;28;20185;-72
2021/09/24 07:03:14;;;;;;;0.70;0.70;;;;;;;10.11;98.11;99620.06;6262649;28;20229;-72
2021/09/24 07:06:18;;;;;;;1.45;0.70;;;;;;;10.00;99.03;99636.22;6262072;28;20216;-72
2021/09/24 07:09:22;;;;;;;0.95;0.63;;;;;;;9.93;98.85;99646.44;6262421;28;20185;-72
2021/09/24 07:12:26;;;;;;;0.70;0.70;;;;;;;9.94;99.54;99644.50;6260865;28;20208;-72
2021/09/24 07:15:32;;;;;;;1.17;0.65;;;;;;;9.93;99.08;99651.03;6262916;28;20185;-72
2021/09/24 07:18:36;;;;;;;0.60;0.60;;;;;;;10.11;98.33;99642.69;6262382;28;20189;-72
2021/09/24 07:21:41;;;;;;;0.63;0.63;;;;;;;10.23;98.96;99656.28;6261245;28;20472;-72
2021/09/24 07:24:48;;;;;;;0.60;0.60;;;;;;;10.33;98.00;99659.22;6262691;28;20191;-72
2021/09/24 07:27:52;;;;;;;1.55;0.80;;;;;;;10.22;98.80;99671.00;6262370;28;20189;-72
2021/09/24 07:30:58;;;;;;;0.65;0.63;;;;;;;10.31;97.95;99661.38;6261203;28;20379;-72
2021/09/24 07:34:02;;;;;;;1.17;0.60;;;;;;;10.11;98.09;99674.56;6262415;28;20189;-72
2021/09/24 07:37:06;;;;;;;0.70;0.70;;;;;;;10.16;97.19;99680.16;6262309;28;20249;-72
2021/09/24 07:40:14;;;;;;;0.95;0.82;;;;;;;10.24;96.85;99680.59;6262321;28;20189;-71
2021/09/24 07:43:18;;;;;;;0.60;0.60;;;;;;;10.40;96.49;99679.81;6260942;28;20243;-71
2021/09/24 07:46:23;;;;;;;0.82;0.82;;;;;;;10.42;96.22;99676.84;6260900;28;20208;-72
2021/09/24 07:49:27;;;;;;;1.20;0.80;;;;;;;10.33;96.19;99683.75;6262208;28;20185;-72
2021/09/24 07:52:32;;;;;;;0.70;0.70;;;;;;;10.36;95.67;99688.72;6261750;28;20212;-72
2021/09/24 07:55:36;;;;;;;0.60;0.60;;;;;;;10.49;95.84;99688.44;6262058;28;20192;-72
2021/09/24 07:58:40;;;;;;;0.80;0.80;;;;;;;10.53;94.80;99712.22;6260668;28;20371;-72
2021/09/24 08:01:49;;;;;;;0.70;0.70;;;;;;;10.41;94.45;99702.44;6260697;28;20244;-72
2021/09/24 08:04:53;;;;;;;0.70;0.70;;;;;;;10.23;94.71;99710.81;6261259;28;20296;-72
2021/09/24 08:07:57;;;;;;;0.90;0.90;;;;;;;10.40;94.56;99738.97;6262139;28;20337;-72
2021/09/24 08:11:04;;;;;;;0.80;0.80;;;;;;;10.46;94.77;99743.44;6262187;28;20185;-72
2021/09/24 08:14:10;;;;;;;0.60;0.60;;;;;;;10.69;94.49;99732.44;6261720;28;20184;-72
2021/09/24 08:17:16;;;;;;;0.70;0.70;;;;;;;10.60;94.43;99733.94;6261005;28;20193;-71
2021/09/24 08:20:20;;;;;;;1.90;0.70;;;;;;;10.59;93.09;99737.72;6260548;28;20411;-71
2021/09/24 08:23:25;;;;;;;0.75;0.75;;;;;;;10.78;94.06;99739.19;6262821;28;20235;-71
2021/09/24 08:26:29;;;;;;;0.70;0.70;;;;;;;10.88;94.03;99747.56;6264993;28;20491;-71
2021/09/24 08:29:33;;;;;;;1.00;1.00;;;;;;;10.80;93.42;99750.66;6264992;28;20185;-71
2021/09/24 08:32:38;;;;;;;0.80;0.80;;;;;;;10.96;93.30;99763.53;6264835;28;20602;-71
2021/09/24 08:35:43;;;;;;;0.80;0.80;;;;;;;10.94;92.47;99773.84;6266163;28;20185;-71
2021/09/24 08:38:47;;;;;;;1.27;0.80;;;;;;;11.01;91.77;99768.25;6265989;28;20185;-72
2021/09/24 08:41:51;;;;;;;0.60;0.60;;;;;;;10.88;92.04;99774.00;6266028;28;20189;-71
2021/09/24 08:44:55;;;;;;;1.55;0.90;;;;;;;11.13;92.81;99782.66;6266052;28;20252;-71
2021/09/24 08:48:06;;;;;;;0.70;0.70;;;;;;;11.20;90.84;99783.31;6265805;28;20185;-71
2021/09/24 08:51:11;;;;;;;0.70;0.70;;;;;;;11.05;90.93;99791.22;6265815;28;20185;-71
2021/09/24 08:54:15;;;;;;;0.70;0.70;;;;;;;11.11;91.25;99785.63;6264695;28;20271;-72
2021/09/24 08:57:19;;;;;;;0.80;0.70;;;;;;;11.13;90.94;99794.41;6264717;28;20189;-72
2021/09/24 09:00:24;;;;;;;1.65;0.98;;;;;;;11.06;90.73;99793.72;6265623;28;20184;-71
2021/09/24 09:03:40;;;;;;;0.95;0.80;;;;;;;11.16;91.22;99804.84;6264086;28;20228;-71
2021/09/24 09:06:44;;;;;;;1.65;0.73;;;;;;;11.05;90.67;99802.97;6264415;28;20247;-71
2021/09/24 09:09:51;;;;;;;0.98;0.98;;;;;;;11.20;91.05;99816.06;6265296;28;20264;-71
2021/09/24 09:12:56;;;;;;;1.00;1.00;;;;;;;11.32;90.52;99814.94;6265312;28;20244;-72
2021/09/24 09:16:04;;;;;;;0.80;0.80;;;;;;;11.38;89.64;99824.03;6265404;28;20299;-72
2021/09/24 09:19:15;;;;;;;0.98;0.85;;;;;;;11.40;89.14;99837.47;6265221;28;20189;-71
2021/09/24 09:22:23;;;;;;;0.85;0.85;;;;;;;11.32;90.00;99831.31;6265046;28;20197;-71
2021/09/24 09:25:31;;;;;;;0.90;0.90;;;;;;;11.33;89.47;99837.59;6264777;28;20192;-72
2021/09/24 09:28:39;;;;;;;0.77;0.77;;;;;;;11.14;90.06;99828.81;6264996;28;20216;-70
2021/09/24 09:31:43;;;;;;;1.95;0.80;;;;;;;11.12;90.03;99841.88;6246201;28;20246;-72
2021/09/24 09:34:49;;;;;;;1.25;0.88;;;;;;;11.31;89.90;99835.13;6264151;28;20311;-72
2021/09/24 09:37:53;;;;;;;0.82;0.80;;;;;;;11.18;89.03;99835.44;6264714;28;20185;-71
2021/09/24 09:41:01;;;;;;;0.80;0.80;;;;;;;11.27;89.67;99833.16;6263536;28;20185;-72
2021/09/24 09:44:06;;;;;;;0.95;0.95;;;;;;;11.49;90.13;99835.97;6264653;28;20189;-72
2021/09/24 09:47:29;;;;;;;0.90;0.90;;;;;;;11.55;88.75;99851.38;6263540;28;20217;-71
2021/09/24 09:50:39;;;;;;;2.58;0.90;;;;;;;11.67;88.62;99846.66;6264069;28;20299;-71
2021/09/24 09:53:49;;;;;;;0.98;0.82;;;;;;;11.67;88.67;99852.13;6263256;28;20272;-72
2021/09/24 09:57:09;;;;;;;0.80;0.80;;;;;;;11.55;88.42;99863.16;6263001;28;20373;-73
2021/09/24 10:00:14;;;;;;;0.80;0.80;;;;;;;11.73;88.50;99864.84;6263034;28;20504;-73
2021/09/24 10:03:28;;;;;;;4.47;0.93;;;;;;;11.65;87.85;99878.88;6262536;28;20286;-72
2021/09/24 10:06:35;;;;;;;2.25;0.95;;;;;;;11.53;87.62;99870.75;6264053;28;20185;-72
2021/09/24 10:09:39;;;;;;;3.08;0.93;;;;;;;11.68;87.73;99889.31;6262657;28;20184;-72
2021/09/24 10:12:45;;;;;;;1.00;1.00;;;;;;;11.51;87.83;99878.34;6262271;28;20409;-72
2021/09/24 10:15:50;;;;;;;0.77;0.77;;;;;;;11.52;87.48;99884.66;6262401;28;20483;-72
2021/09/24 10:18:55;;;;;;;1.40;1.10;;;;;;;11.48;87.49;99905.34;6262307;28;20473;-71
2021/09/24 10:22:01;;;;;;;1.48;1.20;;;;;;;11.71;87.78;99908.00;6263414;28;20189;-71
2021/09/24 10:25:07;;;;;;;0.90;0.90;;;;;;;11.73;86.56;99916.75;6263846;28;20212;-72
2021/09/24 10:28:13;;;;;;;2.00;1.17;;;;;;;11.74;87.69;99912.94;6262400;28;20192;-71
2021/09/24 10:31:19;;;;;;;2.88;1.00;;;;;;;11.81;87.79;99921.81;6262881;28;20316;-72
2021/09/24 10:34:29;;;;;;;0.90;0.90;;;;;;;11.92;87.81;99929.09;6261876;28;20219;-72
2021/09/24 10:37:37;;;;;;;2.58;1.02;;;;;;;11.94;87.70;99924.22;6261867;28;20417;-72
2021/09/24 10:40:53;;;;;;;0.90;0.90;;;;;;;11.75;85.72;99933.72;6263189;28;20251;-72
2021/09/24 10:43:59;;;;;;;1.77;0.90;;;;;;;11.57;86.84;99933.91;6262871;28;20189;-72
2021/09/24 10:47:10;;;;;;;0.80;0.80;;;;;;;11.72;87.12;99929.59;6261727;28;20191;-72
2021/09/24 10:51:03;;;;;;;0.95;0.95;;;;;;;11.90;87.01;99934.00;6262609;28;20217;-72
2021/09/24 10:54:18;;;;;;;4.63;1.30;;;;;;;11.76;85.50;99949.06;6261815;28;20423;-72
2021/09/24 10:57:22;;;;;;;1.42;0.95;;;;;;;11.81;86.69;99940.97;6262836;28;20239;-72
2021/09/24 11:00:28;;;;;;;0.82;0.80;;;;;;;11.96;87.37;99945.84;6261639;28;20441;-71
2021/09/24 11:03:34;;;;;;;1.75;1.20;;;;;;;11.60;85.52;99949.81;6261967;28;20232;-71
2021/09/24 11:06:48;;;;;;;2.95;1.17;;;;;;;11.69;85.69;99956.56;6261890;28;20256;-72
2021/09/24 11:09:54;;;;;;;1.10;1.00;;;;;;;11.82;85.96;99962.56;6262648;28;20263;-72
2021/09/24 11:13:09;;;;;;;1.65;1.30;;;;;;;12.00;85.69;99958.78;6261224;28;20185;-71
2021/09/24 11:16:15;;;;;;;1.00;1.00;;;;;;;11.89;84.63;99967.84;6262684;28;20184;-72
2021/09/24 11:19:31;;;;;;;1.98;1.05;;;;;;;11.99;83.02;99962.59;6262660;28;20189;-71
2021/09/24 11:22:39;;;;;;;1.05;1.05;;;;;;;11.80;83.86;99977.53;6261144;28;20292;-72
2021/09/24 11:26:12;;;;;;;0.95;0.95;;;;;;;11.77;83.82;99980.75;6261104;28;20200;-72
2021/09/24 11:29:17;;;;;;;1.38;1.20;;;;;;;11.90;83.77;99980.47;6262538;28;20263;-71
2021/09/24 11:32:31;;;;;;;0.90;0.90;;;;;;;11.90;83.55;99981.28;6262527;28;20185;-71
2021/09/24 11:35:41;;;;;;;1.10;0.90;;;;;;;12.06;81.97;99985.13;6261353;28;20213;-72
2021/09/24 11:38:45;;;;;;;1.13;1.13;;;;;;;12.00;82.30;99975.16;6262351;28;20220;-72
2021/09/24 11:41:50;;;;;;;0.98;0.98;;;;;;;12.16;84.02;99990.78;6262074;28;20327;-72
2021/09/24 11:44:56;;;;;;;1.75;1.05;;;;;;;12.19;82.18;99978.50;6261139;28;20246;-71
2021/09/24 11:48:03;;;;;;;3.22;1.02;;;;;;;12.20;81.28;99996.56;6261880;28;20192;-71
2021/09/24 11:51:21;;;;;;;2.15;0.98;;;;;;;12.38;81.73;99994.41;6262141;28;20185;-71
2021/09/24 11:54:26;;;;;;;2.22;1.10;;;;;;;12.54;82.54;99993.59;6262111;28;20219;-71
2021/09/24 11:57:32;;;;;;;1.13;1.00;;;;;;;12.54;81.42;99993.59;6261831;28;20185;-71
2021/09/24 12:00:39;;;;;;;0.98;0.98;;;;;;;12.64;80.10;99997.53;6265634;28;20402;-72
2021/09/24 12:03:45;;;;;;;0.95;0.95;;;;;;;12.74;79.17;99997.69;6265555;28;20551;-71
2021/09/24 12:06:52;;;;;;;2.22;1.10;;;;;;;12.94;78.99;100008.97;6265594;28;20185;-72
2021/09/24 12:09:58;;;;;;;1.70;1.00;;;;;;;13.07;78.43;100003.16;6266823;28;20231;-72
2021/09/24 12:13:09;;;;;;;0.93;0.85;;;;;;;13.09;79.36;100028.38;6265734;28;20185;-71
2021/09/24 12:16:18;;;;;;;0.93;0.90;;;;;;;12.86;77.42;100034.03;6266295;28;20240;-71
2021/09/24 12:19:27;;;;;;;0.70;0.70;;;;;;;12.86;77.58;100034.03;6265161;28;20382;-71
2021/09/24 12:22:31;;;;;;;2.20;0.80;;;;;;;12.73;76.27;100042.56;6266005;28;20255;-72
2021/09/24 12:25:36;;;;;;;0.80;0.80;;;;;;;12.61;76.93;100036.38;6266455;28;20221;-71
2021/09/24 12:29:00;;;;;;;1.00;0.85;;;;;;;12.39;77.34;100039.84;6264888;28;20473;-71
2021/09/24 12:32:06;;;;;;;0.88;0.88;;;;;;;12.66;77.92;100050.13;6264954;28;20503;-72
2021/09/24 12:35:12;;;;;;;4.10;1.10;;;;;;;12.54;77.46;100042.84;6264649;28;20209;-71
2021/09/24 12:38:26;;;;;;;1.00;1.00;;;;;;;12.33;77.83;100040.81;6264636;28;20185;-71
2021/09/24 12:41:38;;;;;;;2.30;0.90;;;;;;;12.56;78.99;100029.72;6265514;28;20292;-71
2021/09/24 12:44:52;;;;;;;0.95;0.95;;;;;;;12.77;77.90;100032.78;6265605;28;20234;-71
2021/09/24 12:48:09;;;;;;;1.27;1.10;;;;;;;12.75;79.35;100043.16;6264406;28;20374;-71
2021/09/24 12:51:15;;;;;;;1.05;0.90;;;;;;;12.65;76.72;100053.94;6247636;28;20211;-72
2021/09/24 12:54:20;;;;;;;0.90;0.90;;;;;;;12.75;77.74;100046.72;6265703;28;20219;-71
2021/09/24 12:57:24;;;;;;;0.90;0.90;;;;;;;12.77;77.84;100060.16;6265639;28;20232;-72
2021/09/24 13:00:32;;;;;;;1.55;1.00;;;;;;;12.78;76.43;100048.13;6264618;28;20192;-72
2021/09/24 13:03:41;;;;;;;0.80;0.80;;;;;;;12.71;74.60;100053.75;6263925;28;20414;-72
2021/09/24 13:06:48;;;;;;;0.82;0.82;;;;;;;12.62;74.83;100038.00;6265433;28;20192;-72
2021/09/24 13:10:01;;;;;;;1.00;1.00;;;;;;;12.68;74.08;100053.44;6264443;28;20192;-72
2021/09/24 13:13:06;;;;;;;0.85;0.85;;;;;;;12.68;74.22;100058.91;6246784;28;20201;-72
2021/09/24 13:16:12;;;;;;;0.70;0.70;;;;;;;12.70;74.43;100046.66;6263897;28;20239;-72
2021/09/24 13:19:17;;;;;;;4.78;0.82;;;;;;;12.79;76.55;100055.28;6264803;28;20185;-72
2021/09/24 13:22:24;;;;;;;0.98;0.95;;;;;;;12.72;74.02;100060.06;6263580;28;20249;-72
2021/09/24 13:25:28;;;;;;;0.88;0.88;;;;;;;12.77;74.57;100052.78;6264874;28;20189;-71
2021/09/24 13:28:32;;;;;;;0.98;0.80;;;;;;;12.83;74.82;100056.41;6264557;28;20192;-72
2021/09/24 13:31:37;;;;;;;3.30;0.80;;;;;;;13.03;74.97;100040.28;6263635;28;20231;-72
2021/09/24 13:34:43;;;;;;;0.80;0.80;;;;;;;13.08;74.41;100048.59;6264388;28;20209;-72
2021/09/24 13:37:47;;;;;;;5.93;0.90;;;;;;;13.02;72.15;100050.41;6264687;28;20192;-72
2021/09/24 13:40:51;;;;;;;5.47;1.10;;;;;;;13.09;70.37;100045.63;6263713;28;20228;-72
2021/09/24 13:43:56;;;;;;;3.13;1.02;;;;;;;13.18;72.37;100043.28;6263315;28;20207;-72
2021/09/24 13:47:04;;;;;;;0.82;0.82;;;;;;;13.31;71.71;100042.06;6264069;28;20188;-72
2021/09/24 13:50:10;;;;;;;0.85;0.85;;;;;;;13.45;71.52;100030.50;6263072;28;20504;-72
2021/09/24 13:53:15;;;;;;;1.30;0.77;;;;;;;13.41;70.79;100037.56;6263018;28;20376;-72
2021/09/24 13:56:19;;;;;;;1.17;1.00;;;;;;;13.61;72.12;100037.81;6262756;28;20570;-72
2021/09/24 13:59:24;;;;;;;2.67;0.90;;;;;;;13.56;69.95;100035.00;6262727;28;20405;-72
2021/09/24 14:02:30;;;;;;;0.90;0.90;;;;;;;13.72;70.12;100022.31;6264022;28;20264;-72
2021/09/24 14:05:35;;;;;;;0.70;0.70;;;;;;;13.66;68.85;100029.63;6262619;28;20295;-72
2021/09/24 14:08:39;;;;;;;1.17;0.93;;;;;;;13.76;68.74;100040.72;6263521;28;20184;-72
2021/09/24 14:11:45;;;;;;;4.68;0.95;;;;;;;13.66;69.08;100023.34;6263675;28;20216;-72
2021/09/24 14:14:49;;;;;;;0.83;0.83;;;;;;;13.61;70.27;100026.03;6262369;28;20271;-72
2021/09/24 14:17:54;;;;;;;0.70;0.70;;;;;;;13.64;68.62;100026.34;6263472;28;20220;-72
2021/09/24 14:20:58;;;;;;;5.57;1.00;;;;;;;13.68;69.59;100032.97;6262607;28;20220;-71
2021/09/24 14:24:03;;;;;;;1.88;1.17;;;;;;;13.54;69.71;100037.16;6263471;28;20192;-72
2021/09/24 14:27:09;;;;;;;1.45;0.90;;;;;;;13.65;70.12;100028.00;6262905;28;20192;-72
2021/09/24 14:30:16;;;;;;;0.95;0.95;;;;;;;13.62;69.37;100023.03;6262631;28;20374;-72
2021/09/24 14:33:21;;;;;;;1.85;0.98;;;;;;;13.53;70.43;100019.06;6263124;28;20184;-71